sensor_id;sensor_type;location;lat;lon;timestamp;P1;durP1;ratioP1;P2;durP2;ratioP2
48092;SDS011;33873;47.442;18.902;2023-05-07T00:02:11;5.32;;;2.90;;
48092;SDS011;33873;47.442;18.902;2023-05-07T00:04:39;4.43;;;3.00;;
48092;SDS011;33873;47.442;18.902;2023-05-07T00:07:06;5.68;;;3.22;;
48092;SDS011;33873;47.442;18.902;2023-05-07T00:09:34;4.10;;;2.03;;
48092;SDS011;33873;47.442;18.902;2023-05-07T00:12:02;3.22;;;2.08;;
48092;SDS011;33873;47.442;18.902;2023-05-07T00:14:29;3.50;;;1.75;;
48092;SDS011;33873;47.442;18.902;2023-05-07T00:16:57;3.10;;;2.05;;
48092;SDS011;33873;47.442;18.902;2023-05-07T00:19:25;4.28;;;2.62;;
48092;SDS011;33873;47.442;18.902;2023-05-07T00:21:52;4.95;;;2.70;;
48092;SDS011;33873;47.442;18.902;2023-05-07T00:24:23;4.62;;;3.30;;
48092;SDS011;33873;47.442;18.902;2023-05-07T00:26:50;3.80;;;2.50;;
48092;SDS011;33873;47.442;18.902;2023-05-07T00:29:19;4.50;;;2.87;;
48092;SDS011;33873;47.442;18.902;2023-05-07T00:31:48;4.37;;;2.62;;
48092;SDS011;33873;47.442;18.902;2023-05-07T00:34:16;3.92;;;2.35;;
48092;SDS011;33873;47.442;18.902;2023-05-07T00:36:44;4.93;;;2.12;;
48092;SDS011;33873;47.442;18.902;2023-05-07T00:39:11;3.72;;;2.53;;
48092;SDS011;33873;47.442;18.902;2023-05-07T00:41:39;3.92;;;2.53;;
48092;SDS011;33873;47.442;18.902;2023-05-07T00:44:07;4.10;;;2.03;;
48092;SDS011;33873;47.442;18.902;2023-05-07T00:46:34;3.10;;;1.58;;
48092;SDS011;33873;47.442;18.902;2023-05-07T00:49:02;2.50;;;1.37;;
48092;SDS011;33873;47.442;18.902;2023-05-07T00:51:30;4.43;;;2.00;;
48092;SDS011;33873;47.442;18.902;2023-05-07T00:53:57;3.55;;;1.77;;
48092;SDS011;33873;47.442;18.902;2023-05-07T00:56:25;3.65;;;2.10;;
48092;SDS011;33873;47.442;18.902;2023-05-07T00:58:53;3.58;;;2.08;;
48092;SDS011;33873;47.442;18.902;2023-05-07T01:01:21;3.12;;;1.75;;
48092;SDS011;33873;47.442;18.902;2023-05-07T01:03:48;3.53;;;2.05;;
48092;SDS011;33873;47.442;18.902;2023-05-07T01:06:16;4.37;;;1.95;;
48092;SDS011;33873;47.442;18.902;2023-05-07T01:08:45;3.10;;;2.42;;
48092;SDS011;33873;47.442;18.902;2023-05-07T01:11:13;3.20;;;2.22;;
48092;SDS011;33873;47.442;18.902;2023-05-07T01:13:41;6.20;;;2.87;;
48092;SDS011;33873;47.442;18.902;2023-05-07T01:16:08;4.35;;;2.17;;
48092;SDS011;33873;47.442;18.902;2023-05-07T01:18:37;4.35;;;2.05;;
48092;SDS011;33873;47.442;18.902;2023-05-07T01:21:05;3.10;;;1.80;;
48092;SDS011;33873;47.442;18.902;2023-05-07T01:23:34;5.03;;;2.45;;
48092;SDS011;33873;47.442;18.902;2023-05-07T01:26:02;3.10;;;1.83;;
48092;SDS011;33873;47.442;18.902;2023-05-07T01:28:30;2.72;;;1.75;;
48092;SDS011;33873;47.442;18.902;2023-05-07T01:31:00;2.83;;;1.77;;
48092;SDS011;33873;47.442;18.902;2023-05-07T01:33:29;4.87;;;2.45;;
48092;SDS011;33873;47.442;18.902;2023-05-07T01:35:59;2.80;;;2.15;;
48092;SDS011;33873;47.442;18.902;2023-05-07T01:38:29;5.32;;;1.98;;
48092;SDS011;33873;47.442;18.902;2023-05-07T01:40:57;4.12;;;2.30;;
48092;SDS011;33873;47.442;18.902;2023-05-07T01:43:25;4.57;;;2.03;;
48092;SDS011;33873;47.442;18.902;2023-05-07T01:45:52;4.07;;;2.25;;
48092;SDS011;33873;47.442;18.902;2023-05-07T01:48:20;3.60;;;2.08;;
48092;SDS011;33873;47.442;18.902;2023-05-07T01:50:48;3.95;;;2.60;;
48092;SDS011;33873;47.442;18.902;2023-05-07T01:53:16;3.53;;;1.98;;
48092;SDS011;33873;47.442;18.902;2023-05-07T01:55:43;6.28;;;2.28;;
48092;SDS011;33873;47.442;18.902;2023-05-07T01:58:12;4.43;;;2.53;;
48092;SDS011;33873;47.442;18.902;2023-05-07T02:00:40;3.30;;;1.45;;
48092;SDS011;33873;47.442;18.902;2023-05-07T02:03:08;7.18;;;2.95;;
48092;SDS011;33873;47.442;18.902;2023-05-07T02:05:36;2.17;;;1.95;;
48092;SDS011;33873;47.442;18.902;2023-05-07T02:08:04;3.08;;;1.73;;
48092;SDS011;33873;47.442;18.902;2023-05-07T02:10:32;2.00;;;1.48;;
48092;SDS011;33873;47.442;18.902;2023-05-07T02:12:59;3.08;;;2.08;;
48092;SDS011;33873;47.442;18.902;2023-05-07T02:15:29;2.12;;;1.75;;
48092;SDS011;33873;47.442;18.902;2023-05-07T02:20:27;2.17;;;1.58;;
48092;SDS011;33873;47.442;18.902;2023-05-07T02:22:55;4.07;;;2.05;;
48092;SDS011;33873;47.442;18.902;2023-05-07T02:25:23;3.65;;;2.35;;
48092;SDS011;33873;47.442;18.902;2023-05-07T02:27:51;3.33;;;2.03;;
48092;SDS011;33873;47.442;18.902;2023-05-07T02:30:19;4.12;;;2.15;;
48092;SDS011;33873;47.442;18.902;2023-05-07T02:32:50;1.50;;;1.10;;
48092;SDS011;33873;47.442;18.902;2023-05-07T02:35:17;5.15;;;3.08;;
48092;SDS011;33873;47.442;18.902;2023-05-07T02:37:45;3.83;;;1.85;;
48092;SDS011;33873;47.442;18.902;2023-05-07T02:40:12;4.03;;;2.45;;
48092;SDS011;33873;47.442;18.902;2023-05-07T02:42:41;4.50;;;3.22;;
48092;SDS011;33873;47.442;18.902;2023-05-07T02:45:08;2.78;;;2.08;;
48092;SDS011;33873;47.442;18.902;2023-05-07T02:47:38;7.05;;;4.10;;
48092;SDS011;33873;47.442;18.902;2023-05-07T02:50:06;6.10;;;3.10;;
48092;SDS011;33873;47.442;18.902;2023-05-07T02:52:34;4.97;;;3.12;;
48092;SDS011;33873;47.442;18.902;2023-05-07T02:55:02;5.03;;;3.08;;
48092;SDS011;33873;47.442;18.902;2023-05-07T02:57:29;4.82;;;2.90;;
48092;SDS011;33873;47.442;18.902;2023-05-07T02:59:57;5.03;;;3.10;;
48092;SDS011;33873;47.442;18.902;2023-05-07T03:02:28;6.62;;;3.55;;
48092;SDS011;33873;47.442;18.902;2023-05-07T03:04:55;8.85;;;3.25;;
48092;SDS011;33873;47.442;18.902;2023-05-07T03:07:23;5.03;;;3.00;;
48092;SDS011;33873;47.442;18.902;2023-05-07T03:09:50;4.72;;;3.17;;
48092;SDS011;33873;47.442;18.902;2023-05-07T03:12:18;5.10;;;2.95;;
48092;SDS011;33873;47.442;18.902;2023-05-07T03:14:45;9.43;;;3.58;;
48092;SDS011;33873;47.442;18.902;2023-05-07T03:17:13;5.68;;;2.72;;
48092;SDS011;33873;47.442;18.902;2023-05-07T03:19:40;7.40;;;2.58;;
48092;SDS011;33873;47.442;18.902;2023-05-07T03:22:08;6.57;;;2.80;;
48092;SDS011;33873;47.442;18.902;2023-05-07T03:24:36;7.90;;;3.08;;
48092;SDS011;33873;47.442;18.902;2023-05-07T03:27:03;6.18;;;3.30;;
48092;SDS011;33873;47.442;18.902;2023-05-07T03:29:31;4.70;;;2.67;;
48092;SDS011;33873;47.442;18.902;2023-05-07T03:31:58;3.40;;;2.45;;
48092;SDS011;33873;47.442;18.902;2023-05-07T03:34:26;4.10;;;2.65;;
48092;SDS011;33873;47.442;18.902;2023-05-07T03:36:53;3.22;;;2.30;;
48092;SDS011;33873;47.442;18.902;2023-05-07T03:39:22;4.47;;;3.15;;
48092;SDS011;33873;47.442;18.902;2023-05-07T03:41:49;2.85;;;1.77;;
48092;SDS011;33873;47.442;18.902;2023-05-07T03:44:17;4.05;;;1.85;;
48092;SDS011;33873;47.442;18.902;2023-05-07T03:46:45;2.97;;;1.62;;
48092;SDS011;33873;47.442;18.902;2023-05-07T03:49:13;20.55;;;2.72;;
48092;SDS011;33873;47.442;18.902;2023-05-07T03:51:40;4.72;;;2.65;;
48092;SDS011;33873;47.442;18.902;2023-05-07T03:54:08;8.32;;;4.15;;
48092;SDS011;33873;47.442;18.902;2023-05-07T03:56:36;5.32;;;3.10;;
48092;SDS011;33873;47.442;18.902;2023-05-07T03:59:04;4.72;;;3.00;;
48092;SDS011;33873;47.442;18.902;2023-05-07T04:01:31;7.45;;;3.55;;
48092;SDS011;33873;47.442;18.902;2023-05-07T04:03:59;6.93;;;3.55;;
48092;SDS011;33873;47.442;18.902;2023-05-07T04:06:27;13.25;;;5.25;;
48092;SDS011;33873;47.442;18.902;2023-05-07T04:08:55;5.75;;;2.75;;
48092;SDS011;33873;47.442;18.902;2023-05-07T04:11:23;3.42;;;2.30;;
48092;SDS011;33873;47.442;18.902;2023-05-07T04:13:50;5.78;;;3.33;;
48092;SDS011;33873;47.442;18.902;2023-05-07T04:16:19;5.87;;;3.95;;
48092;SDS011;33873;47.442;18.902;2023-05-07T04:18:47;6.05;;;3.55;;
48092;SDS011;33873;47.442;18.902;2023-05-07T04:21:18;7.05;;;3.75;;
48092;SDS011;33873;47.442;18.902;2023-05-07T04:23:47;7.35;;;3.78;;
48092;SDS011;33873;47.442;18.902;2023-05-07T04:26:15;4.95;;;3.15;;
48092;SDS011;33873;47.442;18.902;2023-05-07T04:28:43;4.25;;;3.12;;
48092;SDS011;33873;47.442;18.902;2023-05-07T04:31:11;3.95;;;2.50;;
48092;SDS011;33873;47.442;18.902;2023-05-07T04:33:38;5.85;;;2.80;;
48092;SDS011;33873;47.442;18.902;2023-05-07T04:36:07;5.20;;;3.40;;
48092;SDS011;33873;47.442;18.902;2023-05-07T04:38:35;6.85;;;3.65;;
48092;SDS011;33873;47.442;18.902;2023-05-07T04:41:03;5.50;;;4.00;;
48092;SDS011;33873;47.442;18.902;2023-05-07T04:43:33;7.55;;;4.32;;
48092;SDS011;33873;47.442;18.902;2023-05-07T04:46:00;10.13;;;4.75;;
48092;SDS011;33873;47.442;18.902;2023-05-07T04:48:28;3.60;;;2.47;;
48092;SDS011;33873;47.442;18.902;2023-05-07T04:50:57;7.15;;;4.72;;
48092;SDS011;33873;47.442;18.902;2023-05-07T04:53:25;7.22;;;5.28;;
48092;SDS011;33873;47.442;18.902;2023-05-07T04:55:56;8.45;;;5.00;;
48092;SDS011;33873;47.442;18.902;2023-05-07T04:58:27;6.12;;;4.07;;
48092;SDS011;33873;47.442;18.902;2023-05-07T05:00:59;5.68;;;3.97;;
48092;SDS011;33873;47.442;18.902;2023-05-07T05:03:28;8.73;;;3.80;;
48092;SDS011;33873;47.442;18.902;2023-05-07T05:05:55;6.30;;;3.95;;
48092;SDS011;33873;47.442;18.902;2023-05-07T05:08:26;6.22;;;4.25;;
48092;SDS011;33873;47.442;18.902;2023-05-07T05:10:54;5.80;;;3.75;;
48092;SDS011;33873;47.442;18.902;2023-05-07T05:13:22;4.82;;;2.92;;
48092;SDS011;33873;47.442;18.902;2023-05-07T05:15:49;5.60;;;2.97;;
48092;SDS011;33873;47.442;18.902;2023-05-07T05:18:17;6.75;;;2.90;;
48092;SDS011;33873;47.442;18.902;2023-05-07T05:20:45;5.60;;;3.65;;
48092;SDS011;33873;47.442;18.902;2023-05-07T05:23:12;5.35;;;3.05;;
48092;SDS011;33873;47.442;18.902;2023-05-07T05:25:40;12.98;;;4.85;;
48092;SDS011;33873;47.442;18.902;2023-05-07T05:28:08;9.82;;;4.22;;
48092;SDS011;33873;47.442;18.902;2023-05-07T05:30:36;7.87;;;3.78;;
48092;SDS011;33873;47.442;18.902;2023-05-07T05:33:03;6.75;;;4.28;;
48092;SDS011;33873;47.442;18.902;2023-05-07T05:35:31;5.93;;;3.87;;
48092;SDS011;33873;47.442;18.902;2023-05-07T05:38:01;5.82;;;3.58;;
48092;SDS011;33873;47.442;18.902;2023-05-07T05:40:28;5.32;;;3.53;;
48092;SDS011;33873;47.442;18.902;2023-05-07T05:42:56;7.00;;;4.50;;
48092;SDS011;33873;47.442;18.902;2023-05-07T05:45:24;8.48;;;3.50;;
48092;SDS011;33873;47.442;18.902;2023-05-07T05:47:52;8.45;;;3.60;;
48092;SDS011;33873;47.442;18.902;2023-05-07T05:50:19;5.97;;;3.47;;
48092;SDS011;33873;47.442;18.902;2023-05-07T05:52:47;8.88;;;3.70;;
48092;SDS011;33873;47.442;18.902;2023-05-07T05:55:16;6.37;;;3.40;;
48092;SDS011;33873;47.442;18.902;2023-05-07T05:57:43;8.27;;;3.65;;
48092;SDS011;33873;47.442;18.902;2023-05-07T06:00:11;4.57;;;3.42;;
48092;SDS011;33873;47.442;18.902;2023-05-07T06:02:44;5.62;;;3.47;;
48092;SDS011;33873;47.442;18.902;2023-05-07T06:05:12;3.75;;;2.78;;
48092;SDS011;33873;47.442;18.902;2023-05-07T06:07:41;5.28;;;2.30;;
48092;SDS011;33873;47.442;18.902;2023-05-07T06:10:09;8.35;;;3.15;;
48092;SDS011;33873;47.442;18.902;2023-05-07T06:12:37;5.22;;;3.00;;
48092;SDS011;33873;47.442;18.902;2023-05-07T06:15:05;5.20;;;3.00;;
48092;SDS011;33873;47.442;18.902;2023-05-07T06:17:33;5.05;;;3.17;;
48092;SDS011;33873;47.442;18.902;2023-05-07T06:20:01;4.62;;;2.90;;
48092;SDS011;33873;47.442;18.902;2023-05-07T06:22:29;3.50;;;2.08;;
48092;SDS011;33873;47.442;18.902;2023-05-07T06:24:56;4.15;;;2.53;;
48092;SDS011;33873;47.442;18.902;2023-05-07T06:27:24;5.28;;;2.67;;
48092;SDS011;33873;47.442;18.902;2023-05-07T06:29:52;4.32;;;2.25;;
48092;SDS011;33873;47.442;18.902;2023-05-07T06:32:20;3.42;;;1.92;;
48092;SDS011;33873;47.442;18.902;2023-05-07T06:34:48;4.82;;;2.33;;
48092;SDS011;33873;47.442;18.902;2023-05-07T06:37:16;4.32;;;2.58;;
48092;SDS011;33873;47.442;18.902;2023-05-07T06:39:44;3.85;;;2.25;;
48092;SDS011;33873;47.442;18.902;2023-05-07T06:42:12;4.95;;;2.55;;
48092;SDS011;33873;47.442;18.902;2023-05-07T06:44:40;4.37;;;2.50;;
48092;SDS011;33873;47.442;18.902;2023-05-07T06:47:08;2.90;;;1.65;;
48092;SDS011;33873;47.442;18.902;2023-05-07T06:49:37;4.35;;;2.53;;
48092;SDS011;33873;47.442;18.902;2023-05-07T06:52:05;5.72;;;2.30;;
48092;SDS011;33873;47.442;18.902;2023-05-07T06:54:32;4.87;;;2.65;;
48092;SDS011;33873;47.442;18.902;2023-05-07T06:57:00;4.70;;;2.67;;
48092;SDS011;33873;47.442;18.902;2023-05-07T06:59:28;5.10;;;3.28;;
48092;SDS011;33873;47.442;18.902;2023-05-07T07:01:55;3.97;;;2.15;;
48092;SDS011;33873;47.442;18.902;2023-05-07T07:04:23;4.87;;;2.80;;
48092;SDS011;33873;47.442;18.902;2023-05-07T07:06:53;5.45;;;2.85;;
48092;SDS011;33873;47.442;18.902;2023-05-07T07:09:21;3.95;;;1.98;;
48092;SDS011;33873;47.442;18.902;2023-05-07T07:11:50;6.68;;;4.00;;
48092;SDS011;33873;47.442;18.902;2023-05-07T07:14:18;5.53;;;2.70;;
48092;SDS011;33873;47.442;18.902;2023-05-07T07:16:46;5.20;;;2.90;;
48092;SDS011;33873;47.442;18.902;2023-05-07T07:19:14;4.12;;;2.40;;
48092;SDS011;33873;47.442;18.902;2023-05-07T07:21:42;6.62;;;3.58;;
48092;SDS011;33873;47.442;18.902;2023-05-07T07:24:10;3.42;;;2.15;;
48092;SDS011;33873;47.442;18.902;2023-05-07T07:26:38;4.80;;;3.42;;
48092;SDS011;33873;47.442;18.902;2023-05-07T07:29:07;5.62;;;2.87;;
48092;SDS011;33873;47.442;18.902;2023-05-07T07:31:35;9.82;;;4.37;;
48092;SDS011;33873;47.442;18.902;2023-05-07T07:34:02;7.00;;;5.03;;
48092;SDS011;33873;47.442;18.902;2023-05-07T07:36:30;7.75;;;4.25;;
48092;SDS011;33873;47.442;18.902;2023-05-07T07:39:12;7.15;;;4.90;;
48092;SDS011;33873;47.442;18.902;2023-05-07T07:41:40;16.67;;;4.80;;
48092;SDS011;33873;47.442;18.902;2023-05-07T07:44:08;7.90;;;5.03;;
48092;SDS011;33873;47.442;18.902;2023-05-07T07:46:36;7.82;;;5.32;;
48092;SDS011;33873;47.442;18.902;2023-05-07T07:49:04;10.95;;;6.65;;
48092;SDS011;33873;47.442;18.902;2023-05-07T07:51:32;9.32;;;5.37;;
48092;SDS011;33873;47.442;18.902;2023-05-07T07:54:00;12.98;;;7.35;;
48092;SDS011;33873;47.442;18.902;2023-05-07T07:56:31;9.35;;;6.85;;
48092;SDS011;33873;47.442;18.902;2023-05-07T07:59:01;9.90;;;7.32;;
48092;SDS011;33873;47.442;18.902;2023-05-07T08:01:32;8.07;;;5.85;;
48092;SDS011;33873;47.442;18.902;2023-05-07T08:04:00;10.85;;;5.97;;
48092;SDS011;33873;47.442;18.902;2023-05-07T08:06:31;8.48;;;6.20;;
48092;SDS011;33873;47.442;18.902;2023-05-07T08:08:59;7.75;;;5.28;;
48092;SDS011;33873;47.442;18.902;2023-05-07T08:11:27;9.05;;;6.47;;
48092;SDS011;33873;47.442;18.902;2023-05-07T08:13:55;7.62;;;4.87;;
48092;SDS011;33873;47.442;18.902;2023-05-07T08:16:23;10.32;;;6.45;;
48092;SDS011;33873;47.442;18.902;2023-05-07T08:18:52;7.15;;;3.97;;
48092;SDS011;33873;47.442;18.902;2023-05-07T08:21:19;8.32;;;4.97;;
48092;SDS011;33873;47.442;18.902;2023-05-07T08:23:47;6.28;;;4.40;;
48092;SDS011;33873;47.442;18.902;2023-05-07T08:26:15;8.02;;;4.47;;
48092;SDS011;33873;47.442;18.902;2023-05-07T08:28:42;7.65;;;5.20;;
48092;SDS011;33873;47.442;18.902;2023-05-07T08:31:10;9.40;;;4.72;;
48092;SDS011;33873;47.442;18.902;2023-05-07T08:33:38;9.25;;;6.50;;
48092;SDS011;33873;47.442;18.902;2023-05-07T08:36:06;9.05;;;4.57;;
48092;SDS011;33873;47.442;18.902;2023-05-07T08:38:34;8.32;;;4.60;;
48092;SDS011;33873;47.442;18.902;2023-05-07T08:41:01;9.82;;;6.05;;
48092;SDS011;33873;47.442;18.902;2023-05-07T08:43:29;6.68;;;3.78;;
48092;SDS011;33873;47.442;18.902;2023-05-07T08:46:00;8.38;;;5.03;;
48092;SDS011;33873;47.442;18.902;2023-05-07T08:48:30;12.00;;;5.10;;
48092;SDS011;33873;47.442;18.902;2023-05-07T08:50:59;9.23;;;4.35;;
48092;SDS011;33873;47.442;18.902;2023-05-07T08:53:27;8.52;;;4.65;;
48092;SDS011;33873;47.442;18.902;2023-05-07T08:55:55;8.25;;;4.70;;
48092;SDS011;33873;47.442;18.902;2023-05-07T08:58:23;6.53;;;4.32;;
48092;SDS011;33873;47.442;18.902;2023-05-07T09:00:50;6.43;;;3.83;;
48092;SDS011;33873;47.442;18.902;2023-05-07T09:03:19;4.78;;;3.03;;
48092;SDS011;33873;47.442;18.902;2023-05-07T09:05:47;10.35;;;4.40;;
48092;SDS011;33873;47.442;18.902;2023-05-07T09:08:15;10.52;;;5.68;;
48092;SDS011;33873;47.442;18.902;2023-05-07T09:10:44;5.65;;;3.15;;
48092;SDS011;33873;47.442;18.902;2023-05-07T09:13:12;5.93;;;3.85;;
48092;SDS011;33873;47.442;18.902;2023-05-07T09:15:42;7.07;;;3.37;;
48092;SDS011;33873;47.442;18.902;2023-05-07T09:18:10;5.32;;;3.28;;
48092;SDS011;33873;47.442;18.902;2023-05-07T09:20:38;8.35;;;4.70;;
48092;SDS011;33873;47.442;18.902;2023-05-07T09:23:07;6.37;;;4.28;;
48092;SDS011;33873;47.442;18.902;2023-05-07T09:25:36;8.43;;;4.28;;
48092;SDS011;33873;47.442;18.902;2023-05-07T09:28:04;6.97;;;4.22;;
48092;SDS011;33873;47.442;18.902;2023-05-07T09:30:35;6.57;;;3.87;;
48092;SDS011;33873;47.442;18.902;2023-05-07T09:33:03;6.30;;;3.15;;
48092;SDS011;33873;47.442;18.902;2023-05-07T09:35:32;6.75;;;4.70;;
48092;SDS011;33873;47.442;18.902;2023-05-07T09:38:00;7.03;;;4.10;;
48092;SDS011;33873;47.442;18.902;2023-05-07T09:40:31;6.82;;;3.37;;
48092;SDS011;33873;47.442;18.902;2023-05-07T09:43:10;6.68;;;3.90;;
48092;SDS011;33873;47.442;18.902;2023-05-07T09:45:39;5.50;;;3.33;;
48092;SDS011;33873;47.442;18.902;2023-05-07T09:48:08;7.12;;;3.87;;
48092;SDS011;33873;47.442;18.902;2023-05-07T09:50:40;9.45;;;4.15;;
48092;SDS011;33873;47.442;18.902;2023-05-07T09:53:17;7.55;;;3.22;;
48092;SDS011;33873;47.442;18.902;2023-05-07T09:55:45;6.97;;;4.00;;
48092;SDS011;33873;47.442;18.902;2023-05-07T09:58:14;8.13;;;5.70;;
48092;SDS011;33873;47.442;18.902;2023-05-07T10:00:42;7.93;;;4.47;;
48092;SDS011;33873;47.442;18.902;2023-05-07T10:03:10;9.85;;;4.70;;
48092;SDS011;33873;47.442;18.902;2023-05-07T10:05:40;7.20;;;4.32;;
48092;SDS011;33873;47.442;18.902;2023-05-07T10:08:08;6.85;;;4.40;;
48092;SDS011;33873;47.442;18.902;2023-05-07T10:10:37;10.18;;;4.93;;
48092;SDS011;33873;47.442;18.902;2023-05-07T10:13:05;7.47;;;4.62;;
48092;SDS011;33873;47.442;18.902;2023-05-07T10:15:38;8.05;;;5.40;;
48092;SDS011;33873;47.442;18.902;2023-05-07T10:18:06;7.07;;;4.03;;
48092;SDS011;33873;47.442;18.902;2023-05-07T10:20:35;7.40;;;4.57;;
48092;SDS011;33873;47.442;18.902;2023-05-07T10:23:05;9.57;;;4.55;;
48092;SDS011;33873;47.442;18.902;2023-05-07T10:25:33;7.82;;;4.40;;
48092;SDS011;33873;47.442;18.902;2023-05-07T10:28:06;7.22;;;3.92;;
48092;SDS011;33873;47.442;18.902;2023-05-07T10:33:29;6.87;;;4.57;;
48092;SDS011;33873;47.442;18.902;2023-05-07T10:36:00;6.90;;;3.75;;
48092;SDS011;33873;47.442;18.902;2023-05-07T10:38:28;5.70;;;3.25;;
48092;SDS011;33873;47.442;18.902;2023-05-07T10:40:58;5.93;;;3.92;;
48092;SDS011;33873;47.442;18.902;2023-05-07T10:43:37;6.20;;;3.12;;
48092;SDS011;33873;47.442;18.902;2023-05-07T10:46:19;4.20;;;2.47;;
48092;SDS011;33873;47.442;18.902;2023-05-07T10:51:29;5.35;;;2.30;;
48092;SDS011;33873;47.442;18.902;2023-05-07T10:56:40;5.53;;;2.87;;
48092;SDS011;33873;47.442;18.902;2023-05-07T11:01:55;6.07;;;3.72;;
48092;SDS011;33873;47.442;18.902;2023-05-07T11:04:34;4.53;;;2.40;;
48092;SDS011;33873;47.442;18.902;2023-05-07T11:07:24;3.55;;;2.17;;
48092;SDS011;33873;47.442;18.902;2023-05-07T11:09:58;5.32;;;2.70;;
48092;SDS011;33873;47.442;18.902;2023-05-07T11:15:14;7.28;;;3.10;;
48092;SDS011;33873;47.442;18.902;2023-05-07T11:17:54;4.35;;;1.87;;
48092;SDS011;33873;47.442;18.902;2023-05-07T11:26:04;3.65;;;2.20;;
48092;SDS011;33873;47.442;18.902;2023-05-07T11:28:37;4.57;;;2.47;;
48092;SDS011;33873;47.442;18.902;2023-05-07T11:31:06;5.75;;;2.78;;
48092;SDS011;33873;47.442;18.902;2023-05-07T11:33:35;5.78;;;2.60;;
48092;SDS011;33873;47.442;18.902;2023-05-07T11:36:04;3.20;;;2.12;;
48092;SDS011;33873;47.442;18.902;2023-05-07T11:38:36;3.12;;;1.92;;
48092;SDS011;33873;47.442;18.902;2023-05-07T11:41:05;3.08;;;1.73;;
48092;SDS011;33873;47.442;18.902;2023-05-07T11:43:35;3.55;;;2.25;;
48092;SDS011;33873;47.442;18.902;2023-05-07T11:46:07;6.80;;;3.67;;
48092;SDS011;33873;47.442;18.902;2023-05-07T11:48:36;3.80;;;1.90;;
48092;SDS011;33873;47.442;18.902;2023-05-07T11:51:05;3.75;;;2.15;;
48092;SDS011;33873;47.442;18.902;2023-05-07T11:53:39;4.80;;;2.65;;
48092;SDS011;33873;47.442;18.902;2023-05-07T11:56:09;8.80;;;2.65;;
48092;SDS011;33873;47.442;18.902;2023-05-07T11:58:37;4.12;;;2.78;;
48092;SDS011;33873;47.442;18.902;2023-05-07T12:01:07;3.62;;;2.28;;
48092;SDS011;33873;47.442;18.902;2023-05-07T12:03:36;4.12;;;1.98;;
48092;SDS011;33873;47.442;18.902;2023-05-07T12:06:05;5.90;;;2.45;;
48092;SDS011;33873;47.442;18.902;2023-05-07T12:08:35;3.85;;;2.42;;
48092;SDS011;33873;47.442;18.902;2023-05-07T12:11:06;5.85;;;2.30;;
48092;SDS011;33873;47.442;18.902;2023-05-07T12:13:34;5.15;;;2.22;;
48092;SDS011;33873;47.442;18.902;2023-05-07T12:16:02;5.32;;;3.12;;
48092;SDS011;33873;47.442;18.902;2023-05-07T12:18:32;4.57;;;2.40;;
48092;SDS011;33873;47.442;18.902;2023-05-07T12:21:01;4.80;;;2.03;;
48092;SDS011;33873;47.442;18.902;2023-05-07T12:23:28;3.75;;;2.55;;
48092;SDS011;33873;47.442;18.902;2023-05-07T12:25:57;5.28;;;2.83;;
48092;SDS011;33873;47.442;18.902;2023-05-07T12:28:24;4.82;;;2.65;;
48092;SDS011;33873;47.442;18.902;2023-05-07T12:30:51;4.40;;;2.22;;
48092;SDS011;33873;47.442;18.902;2023-05-07T12:33:23;2.70;;;1.77;;
48092;SDS011;33873;47.442;18.902;2023-05-07T12:35:53;4.75;;;2.53;;
48092;SDS011;33873;47.442;18.902;2023-05-07T12:38:22;5.22;;;3.20;;
48092;SDS011;33873;47.442;18.902;2023-05-07T12:40:50;5.32;;;3.25;;
48092;SDS011;33873;47.442;18.902;2023-05-07T12:43:21;4.37;;;2.55;;
48092;SDS011;33873;47.442;18.902;2023-05-07T12:45:53;4.87;;;2.67;;
48092;SDS011;33873;47.442;18.902;2023-05-07T12:48:22;3.97;;;2.40;;
48092;SDS011;33873;47.442;18.902;2023-05-07T12:50:51;3.90;;;2.53;;
48092;SDS011;33873;47.442;18.902;2023-05-07T12:53:20;4.12;;;2.53;;
48092;SDS011;33873;47.442;18.902;2023-05-07T12:55:49;4.97;;;2.37;;
48092;SDS011;33873;47.442;18.902;2023-05-07T12:58:19;3.28;;;2.00;;
48092;SDS011;33873;47.442;18.902;2023-05-07T13:00:55;4.12;;;2.37;;
48092;SDS011;33873;47.442;18.902;2023-05-07T13:03:28;3.85;;;2.47;;
48092;SDS011;33873;47.442;18.902;2023-05-07T13:06:01;3.67;;;2.30;;
48092;SDS011;33873;47.442;18.902;2023-05-07T13:08:33;4.32;;;2.03;;
48092;SDS011;33873;47.442;18.902;2023-05-07T13:11:03;4.00;;;2.53;;
48092;SDS011;33873;47.442;18.902;2023-05-07T13:13:32;3.70;;;1.98;;
48092;SDS011;33873;47.442;18.902;2023-05-07T13:16:03;4.62;;;1.73;;
48092;SDS011;33873;47.442;18.902;2023-05-07T13:18:33;3.72;;;1.48;;
48092;SDS011;33873;47.442;18.902;2023-05-07T13:21:01;2.92;;;1.80;;
48092;SDS011;33873;47.442;18.902;2023-05-07T13:23:29;7.05;;;3.65;;
48092;SDS011;33873;47.442;18.902;2023-05-07T13:25:56;4.53;;;2.65;;
48092;SDS011;33873;47.442;18.902;2023-05-07T13:28:24;5.05;;;2.78;;
48092;SDS011;33873;47.442;18.902;2023-05-07T13:30:52;6.72;;;2.17;;
48092;SDS011;33873;47.442;18.902;2023-05-07T13:33:21;4.28;;;2.35;;
48092;SDS011;33873;47.442;18.902;2023-05-07T13:35:49;5.12;;;2.22;;
48092;SDS011;33873;47.442;18.902;2023-05-07T13:38:16;3.45;;;1.83;;
48092;SDS011;33873;47.442;18.902;2023-05-07T13:40:45;4.22;;;2.08;;
48092;SDS011;33873;47.442;18.902;2023-05-07T13:43:12;5.43;;;3.00;;
48092;SDS011;33873;47.442;18.902;2023-05-07T13:45:40;3.37;;;1.95;;
48092;SDS011;33873;47.442;18.902;2023-05-07T13:48:08;4.35;;;2.60;;
48092;SDS011;33873;47.442;18.902;2023-05-07T13:50:36;5.28;;;2.95;;
48092;SDS011;33873;47.442;18.902;2023-05-07T13:53:03;6.78;;;3.20;;
48092;SDS011;33873;47.442;18.902;2023-05-07T13:55:31;4.15;;;2.42;;
48092;SDS011;33873;47.442;18.902;2023-05-07T13:57:59;6.62;;;3.22;;
48092;SDS011;33873;47.442;18.902;2023-05-07T14:00:28;4.93;;;2.75;;
48092;SDS011;33873;47.442;18.902;2023-05-07T14:02:56;6.18;;;3.03;;
48092;SDS011;33873;47.442;18.902;2023-05-07T14:05:23;4.82;;;2.72;;
48092;SDS011;33873;47.442;18.902;2023-05-07T14:07:51;6.00;;;3.22;;
48092;SDS011;33873;47.442;18.902;2023-05-07T14:10:19;3.78;;;2.35;;
48092;SDS011;33873;47.442;18.902;2023-05-07T14:12:47;5.70;;;2.58;;
48092;SDS011;33873;47.442;18.902;2023-05-07T14:15:15;4.85;;;2.40;;
48092;SDS011;33873;47.442;18.902;2023-05-07T14:17:43;4.85;;;2.60;;
48092;SDS011;33873;47.442;18.902;2023-05-07T14:20:11;5.25;;;3.20;;
48092;SDS011;33873;47.442;18.902;2023-05-07T14:22:40;5.28;;;2.80;;
48092;SDS011;33873;47.442;18.902;2023-05-07T14:25:07;4.50;;;2.45;;
48092;SDS011;33873;47.442;18.902;2023-05-07T14:27:36;5.22;;;2.83;;
48092;SDS011;33873;47.442;18.902;2023-05-07T14:30:04;4.95;;;2.37;;
48092;SDS011;33873;47.442;18.902;2023-05-07T14:32:33;5.00;;;2.53;;
48092;SDS011;33873;47.442;18.902;2023-05-07T14:35:01;4.93;;;2.65;;
48092;SDS011;33873;47.442;18.902;2023-05-07T14:37:28;5.43;;;2.97;;
48092;SDS011;33873;47.442;18.902;2023-05-07T14:39:56;8.52;;;3.55;;
48092;SDS011;33873;47.442;18.902;2023-05-07T14:42:23;6.53;;;4.12;;
48092;SDS011;33873;47.442;18.902;2023-05-07T14:44:51;5.97;;;2.75;;
48092;SDS011;33873;47.442;18.902;2023-05-07T14:47:20;5.22;;;3.55;;
48092;SDS011;33873;47.442;18.902;2023-05-07T14:49:47;4.32;;;2.55;;
48092;SDS011;33873;47.442;18.902;2023-05-07T14:52:15;4.40;;;3.03;;
48092;SDS011;33873;47.442;18.902;2023-05-07T14:54:43;4.75;;;2.92;;
48092;SDS011;33873;47.442;18.902;2023-05-07T14:57:10;5.28;;;2.72;;
48092;SDS011;33873;47.442;18.902;2023-05-07T14:59:40;4.75;;;2.42;;
48092;SDS011;33873;47.442;18.902;2023-05-07T15:02:09;6.68;;;2.75;;
48092;SDS011;33873;47.442;18.902;2023-05-07T15:04:38;5.30;;;3.78;;